createdAt,value
2022-12-15T04:04:53.000Z,-8.86
2022-12-15T04:04:53.000Z,-8.88
2022-12-15T04:05:53.000Z,-8.86
2022-12-15T04:06:53.000Z,-8.85
2022-12-15T04:07:53.000Z,-8.82
2022-12-15T04:08:53.000Z,-8.84
2022-12-15T04:09:53.000Z,-8.84
2022-12-15T04:10:53.000Z,-8.81
2022-12-15T04:11:53.000Z,-8.76
2022-12-15T04:12:53.000Z,-8.76
2022-12-15T04:13:53.000Z,-8.74
2022-12-15T04:14:53.000Z,-8.76
2022-12-15T04:15:53.000Z,-8.74
2022-12-15T04:16:53.000Z,-8.73
2022-12-15T04:17:53.000Z,-8.71
2022-12-15T04:18:53.000Z,-8.73
2022-12-15T04:19:53.000Z,-8.73
2022-12-15T04:20:53.000Z,-8.74
2022-12-15T04:21:53.000Z,-8.74
2022-12-15T04:22:53.000Z,-8.71
2022-12-15T04:23:53.000Z,-8.71
2022-12-15T04:24:53.000Z,-8.71
2022-12-15T04:25:53.000Z,-8.70
2022-12-15T04:26:53.000Z,-8.70
2022-12-15T04:27:53.000Z,-8.68
2022-12-15T04:28:53.000Z,-8.68
2022-12-15T04:29:53.000Z,-8.61
2022-12-15T04:30:53.000Z,-8.66
2022-12-15T04:31:53.000Z,-8.66
2022-12-15T04:32:53.000Z,-8.68
2022-12-15T04:33:53.000Z,-8.61
2022-12-15T04:34:53.000Z,-8.63
2022-12-15T04:35:53.000Z,-8.66
2022-12-15T04:36:53.000Z,-8.67
2022-12-15T04:37:53.000Z,-8.71
2022-12-15T04:38:53.000Z,-8.68
2022-12-15T04:39:53.000Z,-8.73
2022-12-15T04:40:53.000Z,-8.71
2022-12-15T04:41:53.000Z,-8.73
2022-12-15T04:42:53.000Z,-8.74
2022-12-15T04:43:53.000Z,-8.73
2022-12-15T04:44:53.000Z,-8.71
2022-12-15T04:45:53.000Z,-8.74
2022-12-15T04:46:53.000Z,-8.71
2022-12-15T04:47:53.000Z,-8.73
2022-12-15T04:48:53.000Z,-8.74
2022-12-15T04:49:53.000Z,-8.68
2022-12-15T04:50:53.000Z,-8.71
2022-12-15T04:51:53.000Z,-8.66
2022-12-15T04:52:53.000Z,-8.63
2022-12-15T04:53:53.000Z,-8.60
2022-12-15T04:54:53.000Z,-8.63
2022-12-15T04:55:53.000Z,-8.61
2022-12-15T04:56:52.000Z,-8.63
2022-12-15T04:57:52.000Z,-8.61
2022-12-15T04:58:52.000Z,-8.63
2022-12-15T04:59:52.000Z,-8.60
2022-12-15T05:00:52.000Z,-8.58
2022-12-15T05:01:52.000Z,-8.61
2022-12-15T05:02:52.000Z,-8.58
2022-12-15T05:03:52.000Z,-8.58
2022-12-15T05:04:52.000Z,-8.56
2022-12-15T05:05:52.000Z,-8.60
2022-12-15T05:06:52.000Z,-8.61
2022-12-15T05:07:52.000Z,-8.58
2022-12-15T05:08:52.000Z,-8.63
2022-12-15T05:09:52.000Z,-8.61
2022-12-15T05:10:52.000Z,-8.66
2022-12-15T05:11:52.000Z,-8.64
2022-12-15T05:12:52.000Z,-8.66
2022-12-15T05:13:52.000Z,-8.66
2022-12-15T05:14:52.000Z,-8.66
2022-12-15T05:15:52.000Z,-8.61
2022-12-15T05:16:52.000Z,-8.63
2022-12-15T05:17:52.000Z,-8.61
2022-12-15T05:18:52.000Z,-8.55
2022-12-15T05:19:52.000Z,-8.60
2022-12-15T05:20:52.000Z,-8.50
2022-12-15T05:21:52.000Z,-8.52
2022-12-15T05:22:52.000Z,-8.52
2022-12-15T05:23:52.000Z,-8.50
2022-12-15T05:24:52.000Z,-8.52
2022-12-15T05:25:52.000Z,-8.53
2022-12-15T05:26:52.000Z,-8.52
2022-12-15T05:27:52.000Z,-8.56
2022-12-15T05:28:52.000Z,-8.60
2022-12-15T05:29:52.000Z,-8.63
2022-12-15T05:30:52.000Z,-8.63
2022-12-15T05:31:52.000Z,-8.63
2022-12-15T05:32:52.000Z,-8.64
2022-12-15T05:33:52.000Z,-8.61
2022-12-15T05:34:52.000Z,-8.63
2022-12-15T05:35:52.000Z,-8.63
2022-12-15T05:36:52.000Z,-8.63
2022-12-15T05:37:52.000Z,-8.64
2022-12-15T05:38:52.000Z,-8.58
2022-12-15T05:39:52.000Z,-8.61
2022-12-15T05:40:52.000Z,-8.56
2022-12-15T05:41:52.000Z,-8.60
2022-12-15T05:42:52.000Z,-8.58
2022-12-15T05:43:52.000Z,-8.58
2022-12-15T05:44:52.000Z,-8.55
2022-12-15T05:45:52.000Z,-8.53
2022-12-15T05:46:52.000Z,-8.53
2022-12-15T05:47:52.000Z,-8.56
2022-12-15T05:48:52.000Z,-8.50
2022-12-15T05:49:52.000Z,-8.47
2022-12-15T05:50:52.000Z,-8.46
2022-12-15T05:51:52.000Z,-8.39
2022-12-15T05:52:52.000Z,-8.35
2022-12-15T05:53:52.000Z,-8.35
2022-12-15T05:54:52.000Z,-8.35
2022-12-15T05:55:52.000Z,-8.31
2022-12-15T05:56:52.000Z,-8.28
2022-12-15T05:57:52.000Z,-8.25
2022-12-15T05:58:52.000Z,-8.22
2022-12-15T05:59:52.000Z,-8.17
2022-12-15T06:00:52.000Z,-8.17
2022-12-15T06:01:52.000Z,-8.14
2022-12-15T06:02:52.000Z,-8.17
2022-12-15T06:03:52.000Z,-8.17
2022-12-15T06:04:52.000Z,-8.14
2022-12-15T06:05:52.000Z,-8.13
2022-12-15T06:06:52.000Z,-8.14
2022-12-15T06:07:52.000Z,-8.11
2022-12-15T06:08:52.000Z,-8.11
2022-12-15T06:09:52.000Z,-8.10
2022-12-15T06:10:52.000Z,-8.07
2022-12-15T06:11:52.000Z,-8.06
2022-12-15T06:12:52.000Z,-8.07
2022-12-15T06:13:52.000Z,-8.08
2022-12-15T06:14:52.000Z,-8.08
2022-12-15T06:15:52.000Z,-8.07
2022-12-15T06:16:52.000Z,-8.10
2022-12-15T06:17:52.000Z,-8.07
2022-12-15T06:18:51.000Z,-8.14
2022-12-15T06:19:51.000Z,-8.14
2022-12-15T06:20:51.000Z,-8.18
2022-12-15T06:21:51.000Z,-8.17
2022-12-15T06:22:51.000Z,-8.21
2022-12-15T06:23:51.000Z,-8.22
2022-12-15T06:24:51.000Z,-8.18
2022-12-15T06:25:51.000Z,-8.25
2022-12-15T06:26:51.000Z,-8.21
2022-12-15T06:27:51.000Z,-8.14
2022-12-15T06:28:51.000Z,-8.18
2022-12-15T06:29:51.000Z,-8.16
2022-12-15T06:30:51.000Z,-8.16
2022-12-15T06:31:51.000Z,-8.14
2022-12-15T06:32:51.000Z,-8.16
2022-12-15T06:33:51.000Z,-8.16
2022-12-15T06:34:51.000Z,-8.18
2022-12-15T06:35:51.000Z,-8.13
2022-12-15T06:36:51.000Z,-8.08
2022-12-15T06:37:51.000Z,-8.08
2022-12-15T06:38:51.000Z,-8.07
2022-12-15T06:39:51.000Z,-8.07
2022-12-15T06:40:51.000Z,-8.04
2022-12-15T06:41:51.000Z,-8.03
2022-12-15T06:42:51.000Z,-7.98
2022-12-15T06:43:51.000Z,-7.98
2022-12-15T06:44:51.000Z,-7.95
2022-12-15T06:45:51.000Z,-7.96
2022-12-15T06:46:51.000Z,-7.95
2022-12-15T06:47:51.000Z,-7.88
2022-12-15T06:48:51.000Z,-7.89
2022-12-15T06:49:51.000Z,-7.85
2022-12-15T06:50:51.000Z,-7.82
2022-12-15T06:51:51.000Z,-7.80
2022-12-15T06:52:51.000Z,-7.82
2022-12-15T06:53:51.000Z,-7.78
2022-12-15T06:54:51.000Z,-7.80
2022-12-15T06:55:51.000Z,-7.78
2022-12-15T06:56:51.000Z,-7.76
2022-12-15T06:57:51.000Z,-7.76
2022-12-15T06:58:51.000Z,-7.78
2022-12-15T06:59:51.000Z,-7.78
2022-12-15T07:00:51.000Z,-7.78
2022-12-15T07:01:51.000Z,-7.74
2022-12-15T07:02:51.000Z,-7.74
2022-12-15T07:03:51.000Z,-7.77
2022-12-15T07:04:51.000Z,-7.74
2022-12-15T07:05:51.000Z,-7.73
2022-12-15T07:06:51.000Z,-7.71
2022-12-15T07:07:51.000Z,-7.70
2022-12-15T07:08:51.000Z,-7.66
2022-12-15T07:09:51.000Z,-7.66
2022-12-15T07:10:51.000Z,-7.66
2022-12-15T07:11:51.000Z,-7.64
2022-12-15T07:12:51.000Z,-7.60
2022-12-15T07:13:51.000Z,-7.56
2022-12-15T07:14:51.000Z,-7.56
2022-12-15T07:15:51.000Z,-7.53
2022-12-15T07:16:51.000Z,-7.53
2022-12-15T07:17:51.000Z,-7.50
2022-12-15T07:18:51.000Z,-7.46
2022-12-15T07:19:51.000Z,-7.45
2022-12-15T07:20:51.000Z,-7.41
2022-12-15T07:21:51.000Z,-7.38
2022-12-15T07:22:51.000Z,-7.35
2022-12-15T07:23:51.000Z,-7.35
2022-12-15T07:24:51.000Z,-7.31
2022-12-15T07:25:51.000Z,-7.32
2022-12-15T07:26:51.000Z,-7.28
2022-12-15T07:27:51.000Z,-7.27
2022-12-15T07:28:51.000Z,-7.29
2022-12-15T07:29:51.000Z,-7.27
2022-12-15T07:30:51.000Z,-7.28
2022-12-15T07:31:51.000Z,-7.27
2022-12-15T07:32:51.000Z,-7.23
2022-12-15T07:33:51.000Z,-7.23
2022-12-15T07:34:51.000Z,-7.20
2022-12-15T07:35:51.000Z,-7.14
2022-12-15T07:36:51.000Z,-7.13
2022-12-15T07:37:51.000Z,-7.13
2022-12-15T07:38:51.000Z,-7.11
2022-12-15T07:39:51.000Z,-7.10
2022-12-15T07:40:50.000Z,-7.08
2022-12-15T07:41:50.000Z,-7.10
2022-12-15T07:42:50.000Z,-7.08
2022-12-15T07:43:50.000Z,-7.11
2022-12-15T07:44:50.000Z,-7.10
2022-12-15T07:45:50.000Z,-7.07
2022-12-15T07:46:50.000Z,-7.10
2022-12-15T07:47:50.000Z,-7.07
2022-12-15T07:48:50.000Z,-7.03
2022-12-15T07:49:50.000Z,-7.03
2022-12-15T07:50:50.000Z,-7.05
2022-12-15T07:51:50.000Z,-7.05
2022-12-15T07:52:50.000Z,-7.00
2022-12-15T07:53:50.000Z,-6.99
2022-12-15T07:54:50.000Z,-6.95
2022-12-15T07:55:50.000Z,-6.98
2022-12-15T07:56:50.000Z,-6.96
2022-12-15T07:57:50.000Z,-6.95
2022-12-15T07:58:50.000Z,-6.93
2022-12-15T07:59:50.000Z,-6.92
2022-12-15T08:00:50.000Z,-6.92
2022-12-15T08:01:50.000Z,-6.95
2022-12-15T08:02:50.000Z,-6.90
2022-12-15T08:03:50.000Z,-6.92
2022-12-15T08:04:50.000Z,-6.89
2022-12-15T08:05:50.000Z,-6.92
2022-12-15T08:06:50.000Z,-6.90
2022-12-15T08:07:50.000Z,-6.89
2022-12-15T08:08:50.000Z,-6.89
2022-12-15T08:08:50.000Z,-6.89
2022-12-15T08:09:50.000Z,-6.89
2022-12-15T08:09:50.000Z,-6.89
2022-12-15T08:10:50.000Z,-6.87
2022-12-15T08:10:50.000Z,-6.87
2022-12-15T08:11:50.000Z,-6.85
2022-12-15T08:11:50.000Z,-6.85
2022-12-15T08:12:50.000Z,-6.85
2022-12-15T08:12:50.000Z,-6.85
2022-12-15T08:13:50.000Z,-6.85
2022-12-15T08:14:50.000Z,-6.81
2022-12-15T08:15:50.000Z,-6.81
2022-12-15T08:16:50.000Z,-6.79
2022-12-15T08:17:50.000Z,-6.77
2022-12-15T08:18:50.000Z,-6.74
2022-12-15T08:19:50.000Z,-6.74
2022-12-15T08:20:50.000Z,-6.71
2022-12-15T08:21:50.000Z,-6.67
2022-12-15T08:22:50.000Z,-6.64
2022-12-15T08:23:50.000Z,-6.66
2022-12-15T08:23:50.000Z,-6.66
2022-12-15T08:24:50.000Z,-6.60
2022-12-15T08:24:50.000Z,-6.60
2022-12-15T08:25:50.000Z,-6.60
2022-12-15T08:25:50.000Z,-6.60
2022-12-15T08:26:50.000Z,-6.59
2022-12-15T08:26:50.000Z,-6.59
2022-12-15T08:27:50.000Z,-6.53
2022-12-15T08:27:50.000Z,-6.53
2022-12-15T08:28:50.000Z,-6.52
2022-12-15T08:29:50.000Z,-6.50
2022-12-15T08:30:50.000Z,-6.48
2022-12-15T08:31:50.000Z,-6.47
2022-12-15T08:32:50.000Z,-6.47
2022-12-15T08:33:50.000Z,-6.45
2022-12-15T08:34:50.000Z,-6.39
2022-12-15T08:35:50.000Z,-6.38
2022-12-15T08:36:50.000Z,-6.37
2022-12-15T08:37:50.000Z,-6.37
2022-12-15T08:38:50.000Z,-6.34
2022-12-15T08:39:50.000Z,-6.31
2022-12-15T08:40:50.000Z,-6.29
2022-12-15T08:41:50.000Z,-6.24
2022-12-15T08:42:50.000Z,-6.26
2022-12-15T08:43:50.000Z,-6.21
2022-12-15T08:44:50.000Z,-6.20
2022-12-15T08:45:50.000Z,-6.19
2022-12-15T08:46:50.000Z,-6.13
2022-12-15T08:47:50.000Z,-6.13
2022-12-15T08:48:50.000Z,-6.08
2022-12-15T08:49:50.000Z,-6.06
2022-12-15T08:50:50.000Z,-6.05
2022-12-15T08:51:50.000Z,-6.02
2022-12-15T08:52:50.000Z,-5.98
2022-12-15T08:53:50.000Z,-5.95
2022-12-15T08:54:50.000Z,-5.90
2022-12-15T08:55:50.000Z,-5.87
2022-12-15T08:56:50.000Z,-5.85
2022-12-15T08:57:50.000Z,-5.85
2022-12-15T08:58:50.000Z,-5.81
2022-12-15T08:59:50.000Z,-5.77
2022-12-15T09:00:49.000Z,-5.75
2022-12-15T09:01:49.000Z,-5.71
2022-12-15T09:02:49.000Z,-5.67
2022-12-15T09:03:49.000Z,-5.67
2022-12-15T09:04:49.000Z,-5.63
2022-12-15T09:05:49.000Z,-5.59
2022-12-15T09:06:49.000Z,-5.59
2022-12-15T09:07:49.000Z,-5.53
2022-12-15T09:08:49.000Z,-5.49
2022-12-15T09:09:49.000Z,-5.45
2022-12-15T09:10:49.000Z,-5.42
2022-12-15T09:11:49.000Z,-5.39
2022-12-15T09:12:49.000Z,-5.39
